createdAt,value
2017-05-26T00:00:48.324Z,76.60
2017-05-26T00:03:16.667Z,76.80
2017-05-26T00:05:44.964Z,76.70
2017-05-26T00:08:13.262Z,76.50
2017-05-26T00:10:41.589Z,76.30
2017-05-26T00:13:09.888Z,77.00
2017-05-26T00:15:38.208Z,76.90
2017-05-26T00:18:06.517Z,76.60
2017-05-26T00:20:34.843Z,73.70
2017-05-26T00:23:03.147Z,73.50
2017-05-26T00:25:31.468Z,74.30
2017-05-26T00:27:59.772Z,75.60
2017-05-26T00:30:28.120Z,75.90
2017-05-26T00:32:56.427Z,75.10
2017-05-26T00:35:24.730Z,74.30
2017-05-26T00:37:53.048Z,74.30
2017-05-26T00:40:21.355Z,73.50
2017-05-26T00:42:49.676Z,73.30
2017-05-26T00:45:17.982Z,72.90
2017-05-26T00:47:46.301Z,73.40
2017-05-26T00:50:14.621Z,74.60
2017-05-26T00:52:42.939Z,74.50
2017-05-26T00:55:11.237Z,74.80
2017-05-26T00:57:39.563Z,74.90
2017-05-26T01:00:07.868Z,75.10
2017-05-26T01:02:36.172Z,75.90
2017-05-26T01:05:04.505Z,76.10
2017-05-26T01:07:32.813Z,76.80
2017-05-26T01:10:01.142Z,77.70
2017-05-26T01:12:29.440Z,78.10
2017-05-26T01:14:57.763Z,77.40
2017-05-26T01:17:26.068Z,76.80
2017-05-26T01:19:54.392Z,77.10
2017-05-26T01:22:22.699Z,77.50
2017-05-26T01:24:51.037Z,77.50
2017-05-26T01:27:19.344Z,76.80
2017-05-26T01:29:47.669Z,76.70
2017-05-26T01:32:16.280Z,77.50
2017-05-26T01:34:44.591Z,77.40
2017-05-26T01:37:12.915Z,76.30
2017-05-26T01:39:41.220Z,77.30
2017-05-26T01:42:09.563Z,78.40
2017-05-26T01:44:37.867Z,78.70
2017-05-26T01:47:06.197Z,78.60
2017-05-26T01:49:34.499Z,78.80
2017-05-26T01:52:02.846Z,79.10
2017-05-26T01:54:31.151Z,79.90
2017-05-26T01:56:59.460Z,80.50
2017-05-26T01:59:27.785Z,81.10
2017-05-26T02:01:56.092Z,81.30
2017-05-26T02:04:24.422Z,81.90
2017-05-26T02:06:52.729Z,82.20
2017-05-26T02:09:21.055Z,81.00
2017-05-26T02:11:49.363Z,77.80
2017-05-26T02:14:17.689Z,75.60
2017-05-26T02:16:45.991Z,75.90
2017-05-26T02:19:14.333Z,75.70
2017-05-26T02:21:42.640Z,75.50
2017-05-26T02:24:10.951Z,75.80
2017-05-26T02:26:39.276Z,76.00
2017-05-26T02:29:07.575Z,78.00
2017-05-26T02:31:35.892Z,78.80
2017-05-26T02:34:04.201Z,78.50
2017-05-26T02:36:32.527Z,79.10
2017-05-26T02:39:00.836Z,79.50
2017-05-26T02:41:29.160Z,79.90
2017-05-26T02:43:57.459Z,81.00
2017-05-26T02:46:25.921Z,78.50
2017-05-26T02:48:54.232Z,76.20
2017-05-26T02:51:22.536Z,76.90
2017-05-26T02:53:50.859Z,78.00
2017-05-26T02:56:19.158Z,78.30
2017-05-26T02:58:47.479Z,78.40
2017-05-26T03:01:15.780Z,78.80
2017-05-26T03:03:44.106Z,78.80
2017-05-26T03:06:12.407Z,78.70
2017-05-26T03:08:40.825Z,78.80
2017-05-26T03:11:09.127Z,78.70
2017-05-26T03:13:37.426Z,79.00
2017-05-26T03:16:05.748Z,78.90
2017-05-26T03:18:34.047Z,79.30
2017-05-26T03:21:02.363Z,79.40
2017-05-26T03:23:30.664Z,79.60
2017-05-26T03:25:58.979Z,79.90
2017-05-26T03:28:27.285Z,80.40
2017-05-26T03:30:55.615Z,80.60
2017-05-26T03:33:23.920Z,82.50
2017-05-26T03:35:52.261Z,80.20
2017-05-26T03:38:20.563Z,79.60
2017-05-26T03:40:48.855Z,79.90
2017-05-26T03:43:17.175Z,80.00
2017-05-26T03:45:45.479Z,79.40
2017-05-26T03:48:13.800Z,80.50
2017-05-26T03:50:42.108Z,80.50
2017-05-26T03:53:10.436Z,80.00
2017-05-26T03:55:38.740Z,80.00
2017-05-26T03:58:07.065Z,78.20
2017-05-26T04:00:35.379Z,76.60
2017-05-26T04:03:03.732Z,75.20
2017-05-26T04:05:32.039Z,74.60
2017-05-26T04:08:00.360Z,73.90
2017-05-26T04:10:28.696Z,73.60
2017-05-26T04:12:57.000Z,72.80
2017-05-26T04:15:25.328Z,73.00
2017-05-26T04:17:53.635Z,73.30
2017-05-26T04:20:21.968Z,73.40
2017-05-26T04:22:50.289Z,73.10
2017-05-26T04:25:18.645Z,71.80
2017-05-26T04:27:46.955Z,69.20
2017-05-26T04:30:15.299Z,69.30
2017-05-26T04:32:43.630Z,69.40
2017-05-26T04:35:11.937Z,70.50
2017-05-26T04:37:40.277Z,70.50
2017-05-26T04:40:08.608Z,69.50
2017-05-26T04:42:36.936Z,68.10
2017-05-26T04:45:05.666Z,66.40
2017-05-26T04:47:34.010Z,65.10
2017-05-26T04:50:02.320Z,63.50
2017-05-26T04:52:30.669Z,62.50
2017-05-26T04:54:58.990Z,59.90
2017-05-26T04:57:27.345Z,59.20
2017-05-26T04:59:55.656Z,58.00
2017-05-26T05:02:23.982Z,57.50
2017-05-26T05:04:52.312Z,57.60
2017-05-26T05:07:20.615Z,58.00
2017-05-26T05:09:48.948Z,56.80
2017-05-26T05:12:17.254Z,55.50
2017-05-26T05:14:45.580Z,54.30
2017-05-26T05:17:13.897Z,53.70
2017-05-26T05:19:42.265Z,52.70
2017-05-26T05:22:10.577Z,52.70
2017-05-26T05:24:38.892Z,51.70
2017-05-26T05:27:07.268Z,50.10
2017-05-26T05:29:35.581Z,49.60
2017-05-26T05:32:03.918Z,49.10
2017-05-26T05:34:32.232Z,48.20
2017-05-26T05:37:00.572Z,47.60
2017-05-26T05:39:28.884Z,45.60
2017-05-26T05:41:57.229Z,44.90
2017-05-26T05:44:25.571Z,44.50
2017-05-26T05:46:53.907Z,44.90
2017-05-26T05:49:22.240Z,45.00
2017-05-26T05:51:50.560Z,44.80
2017-05-26T05:54:18.900Z,45.50
2017-05-26T05:56:47.207Z,45.10
2017-05-26T05:59:15.541Z,44.00
2017-05-26T06:01:43.853Z,43.60
2017-05-26T06:04:12.191Z,43.10
2017-05-26T06:06:40.528Z,43.60
2017-05-26T06:09:08.915Z,42.30
2017-05-26T06:11:37.254Z,43.10
2017-05-26T06:14:05.568Z,41.70
2017-05-26T06:16:33.905Z,41.70
2017-05-26T06:19:02.227Z,42.30
2017-05-26T06:21:31.436Z,40.10
2017-05-26T06:23:59.756Z,41.20
2017-05-26T06:26:28.091Z,42.10
2017-05-26T06:28:56.408Z,42.70
2017-05-26T06:31:24.769Z,41.10
2017-05-26T06:33:53.109Z,38.50
2017-05-26T06:36:21.415Z,40.80
2017-05-26T06:38:49.745Z,40.90
2017-05-26T06:41:18.064Z,42.10
2017-05-26T06:43:46.404Z,40.90
2017-05-26T06:46:14.737Z,41.30
2017-05-26T06:48:43.107Z,38.90
2017-05-26T06:51:11.412Z,39.90
2017-05-26T06:53:39.722Z,41.20
2017-05-26T06:56:08.083Z,40.50
2017-05-26T06:58:36.441Z,42.10
2017-05-26T07:01:04.785Z,44.60
2017-05-26T07:03:33.093Z,42.10
2017-05-26T07:06:01.440Z,44.10
2017-05-26T07:08:29.756Z,41.50
2017-05-26T07:10:58.128Z,42.30
2017-05-26T07:13:26.452Z,44.30
2017-05-26T07:15:54.803Z,43.10
2017-05-26T07:18:23.104Z,42.80
2017-05-26T07:20:51.408Z,42.40
2017-05-26T07:23:19.744Z,43.60
2017-05-26T07:25:48.053Z,40.50
2017-05-26T07:28:16.381Z,42.30
2017-05-26T07:30:44.689Z,41.60
2017-05-26T07:33:13.028Z,40.10
2017-05-26T07:35:41.355Z,38.60
2017-05-26T07:38:09.693Z,39.30
2017-05-26T07:40:38.009Z,41.60
2017-05-26T07:43:06.372Z,39.80
2017-05-26T07:45:34.684Z,40.70
2017-05-26T07:48:02.989Z,39.50
2017-05-26T07:50:31.390Z,40.10
2017-05-26T07:52:59.702Z,39.90
2017-05-26T07:55:28.039Z,40.30
2017-05-26T07:57:56.362Z,38.30
2017-05-26T08:00:24.696Z,38.30
2017-05-26T08:02:53.023Z,38.30
2017-05-26T08:05:21.380Z,37.10
2017-05-26T08:07:49.705Z,36.40
2017-05-26T08:10:18.040Z,35.00
2017-05-26T08:12:46.369Z,36.50
2017-05-26T08:15:14.681Z,36.80
2017-05-26T08:17:43.037Z,38.60
2017-05-26T08:20:11.348Z,37.70
2017-05-26T08:22:39.677Z,37.70
2017-05-26T08:25:08.017Z,35.70
2017-05-26T08:27:36.377Z,33.00
2017-05-26T08:30:04.688Z,32.70
2017-05-26T08:32:33.039Z,34.00
2017-05-26T08:35:01.352Z,33.30
2017-05-26T08:37:29.663Z,31.00
2017-05-26T08:39:58.010Z,32.90
2017-05-26T08:42:26.327Z,33.80
2017-05-26T08:44:54.674Z,31.60
2017-05-26T08:47:22.992Z,35.40
2017-05-26T08:49:51.328Z,34.00
2017-05-26T08:52:19.648Z,33.50
2017-05-26T08:54:47.989Z,30.90
2017-05-26T08:57:16.308Z,31.30
2017-05-26T08:59:44.664Z,31.50
2017-05-26T09:02:12.976Z,33.80
2017-05-26T09:04:41.295Z,33.30
2017-05-26T09:07:09.629Z,33.70
2017-05-26T09:09:37.982Z,33.80
2017-05-26T09:12:06.321Z,33.50
2017-05-26T09:14:34.633Z,33.70
2017-05-26T09:17:02.989Z,35.10
2017-05-26T09:19:31.312Z,35.90
2017-05-26T09:21:59.668Z,32.60
2017-05-26T09:24:27.985Z,33.80
2017-05-26T09:26:56.321Z,32.90
2017-05-26T09:29:24.664Z,34.40
2017-05-26T09:31:52.976Z,33.40
2017-05-26T09:34:21.326Z,32.90
2017-05-26T09:36:50.068Z,35.10
2017-05-26T09:39:18.401Z,35.40
2017-05-26T09:41:46.724Z,36.00
2017-05-26T09:44:15.060Z,34.20
2017-05-26T09:46:43.373Z,33.30
2017-05-26T09:49:11.736Z,30.20
2017-05-26T09:51:40.047Z,30.10
2017-05-26T09:54:08.360Z,32.90
2017-05-26T09:56:36.692Z,31.70
2017-05-26T09:59:05.008Z,29.70
2017-05-26T10:01:33.347Z,29.50
2017-05-26T10:04:01.672Z,30.00
2017-05-26T10:06:29.998Z,29.40
2017-05-26T10:08:58.309Z,31.20
2017-05-26T10:11:26.640Z,34.30
2017-05-26T10:13:54.953Z,32.60
2017-05-26T10:16:23.351Z,33.20
2017-05-26T10:18:51.665Z,31.80
2017-05-26T10:21:19.983Z,31.00
2017-05-26T10:23:48.319Z,31.20
2017-05-26T10:26:16.648Z,31.50
2017-05-26T10:28:44.985Z,30.60
2017-05-26T10:31:13.304Z,32.00
2017-05-26T10:33:41.640Z,31.90
2017-05-26T10:36:09.947Z,31.40
2017-05-26T10:38:38.282Z,32.70
2017-05-26T10:41:06.602Z,32.00
2017-05-26T10:43:34.958Z,33.30
2017-05-26T10:46:03.279Z,33.00
2017-05-26T10:48:31.610Z,31.80
2017-05-26T10:50:59.970Z,33.40
2017-05-26T10:53:28.288Z,31.10
2017-05-26T10:55:56.632Z,32.40
2017-05-26T10:58:24.949Z,35.20
2017-05-26T11:00:53.271Z,36.40
2017-05-26T11:03:21.612Z,35.30
2017-05-26T11:05:49.959Z,33.60
2017-05-26T11:08:18.276Z,30.20
2017-05-26T11:10:46.656Z,30.30
2017-05-26T11:13:15.005Z,31.50
2017-05-26T11:15:43.352Z,30.30
2017-05-26T11:18:11.693Z,31.60
2017-05-26T11:20:39.996Z,35.20
2017-05-26T11:23:08.332Z,35.80
2017-05-26T11:25:36.650Z,32.20
2017-05-26T11:28:04.979Z,31.00
2017-05-26T11:30:33.307Z,33.10
2017-05-26T11:33:01.649Z,32.10
2017-05-26T11:35:29.964Z,31.40
2017-05-26T11:37:58.338Z,30.50
2017-05-26T11:40:26.651Z,31.70
2017-05-26T11:42:54.968Z,31.30
2017-05-26T11:45:23.300Z,31.60
2017-05-26T11:47:51.625Z,31.20
2017-05-26T11:50:19.997Z,32.70
2017-05-26T11:52:48.312Z,32.30
2017-05-26T11:55:16.644Z,33.70
2017-05-26T11:57:44.966Z,31.20
2017-05-26T12:00:13.323Z,34.40
2017-05-26T12:02:41.638Z,35.00
2017-05-26T12:05:09.222Z,34.90
2017-05-26T12:07:37.557Z,35.10
2017-05-26T12:10:05.868Z,32.60
2017-05-26T12:12:34.204Z,31.70
2017-05-26T12:15:02.519Z,31.70
2017-05-26T12:17:30.868Z,34.90
2017-05-26T12:19:59.188Z,32.10
2017-05-26T12:22:27.536Z,32.40
2017-05-26T12:24:55.851Z,30.90
2017-05-26T12:27:24.179Z,30.90
2017-05-26T12:29:52.524Z,32.30
2017-05-26T12:32:20.836Z,30.10
2017-05-26T12:34:49.192Z,32.40
2017-05-26T12:37:17.508Z,35.90
2017-05-26T12:39:45.857Z,35.60
2017-05-26T12:42:14.178Z,35.60
2017-05-26T12:44:42.513Z,33.40
2017-05-26T12:47:10.823Z,33.30
2017-05-26T12:49:39.180Z,31.90
2017-05-26T12:52:07.488Z,33.90
2017-05-26T12:54:35.799Z,33.00
2017-05-26T12:57:04.132Z,32.80
2017-05-26T12:59:32.447Z,34.60
2017-05-26T13:02:00.800Z,35.10
2017-05-26T13:04:29.115Z,34.50
2017-05-26T13:06:57.455Z,34.20
2017-05-26T13:09:25.796Z,31.80
2017-05-26T13:11:54.153Z,33.40
2017-05-26T13:14:22.460Z,32.60
2017-05-26T13:16:50.820Z,32.20
2017-05-26T13:19:19.153Z,35.60
2017-05-26T13:21:47.489Z,31.70
2017-05-26T13:24:15.824Z,30.60
2017-05-26T13:26:44.139Z,30.80
2017-05-26T13:29:12.490Z,31.10
2017-05-26T13:31:40.837Z,29.00
2017-05-26T13:34:09.240Z,31.60
2017-05-26T13:36:37.566Z,29.30
2017-05-26T13:39:05.888Z,28.90
2017-05-26T13:41:34.219Z,33.80
2017-05-26T13:44:02.540Z,30.80
2017-05-26T13:46:30.881Z,32.30
2017-05-26T13:48:59.191Z,37.20
2017-05-26T13:51:27.521Z,36.10
2017-05-26T13:53:55.861Z,35.90
2017-05-26T13:56:24.195Z,36.00
2017-05-26T13:58:52.531Z,36.50
2017-05-26T14:01:20.897Z,34.10
2017-05-26T14:03:49.287Z,31.50
2017-05-26T14:06:17.660Z,34.60
2017-05-26T14:08:46.003Z,35.10
2017-05-26T14:11:14.330Z,30.70
2017-05-26T14:13:42.672Z,32.20
2017-05-26T14:16:10.981Z,30.90
2017-05-26T14:18:39.321Z,32.10
2017-05-26T14:21:07.639Z,35.20
2017-05-26T14:23:35.975Z,35.10
2017-05-26T14:26:04.296Z,35.60
2017-05-26T14:28:32.676Z,33.50
2017-05-26T14:31:01.029Z,31.90
2017-05-26T14:33:29.352Z,31.50
2017-05-26T14:35:57.692Z,31.70
2017-05-26T14:38:26.008Z,33.50
2017-05-26T14:40:54.343Z,34.00
2017-05-26T14:43:22.664Z,32.90
2017-05-26T14:45:50.995Z,37.20
2017-05-26T14:48:19.328Z,33.50
2017-05-26T14:50:47.675Z,35.90
2017-05-26T14:53:16.029Z,34.50
2017-05-26T14:55:44.350Z,33.60
2017-05-26T14:58:12.686Z,32.70
2017-05-26T15:00:40.996Z,32.90
2017-05-26T15:03:09.325Z,34.80
2017-05-26T15:05:37.640Z,36.30
2017-05-26T15:08:05.965Z,33.60
2017-05-26T15:10:34.278Z,33.60
2017-05-26T15:13:02.635Z,34.10
2017-05-26T15:15:30.965Z,35.00
2017-05-26T15:17:59.336Z,35.70
2017-05-26T15:20:27.676Z,39.60
2017-05-26T15:22:56.017Z,37.50
2017-05-26T15:25:24.353Z,38.20
2017-05-26T15:27:52.659Z,34.80
2017-05-26T15:30:20.992Z,36.90
2017-05-26T15:32:49.308Z,38.10
2017-05-26T15:35:17.649Z,37.30
2017-05-26T15:37:45.966Z,38.70
2017-05-26T15:40:14.296Z,36.60
2017-05-26T15:42:42.608Z,36.70
2017-05-26T15:45:10.984Z,37.80
2017-05-26T15:47:39.296Z,38.10
2017-05-26T15:50:07.620Z,39.60
2017-05-26T15:52:35.952Z,41.40
2017-05-26T15:55:04.268Z,38.60
2017-05-26T15:57:32.591Z,38.50
2017-05-26T16:00:00.907Z,39.40
2017-05-26T16:02:29.232Z,39.40
2017-05-26T16:04:57.554Z,39.80
2017-05-26T16:07:25.879Z,38.50
2017-05-26T16:09:54.187Z,38.20
2017-05-26T16:12:22.524Z,40.20
2017-05-26T16:14:50.842Z,39.50
2017-05-26T16:17:19.173Z,41.00
2017-05-26T16:19:47.485Z,42.80
2017-05-26T16:22:15.803Z,44.10
2017-05-26T16:24:44.149Z,46.80
2017-05-26T16:27:12.493Z,42.00
2017-05-26T16:29:40.831Z,41.20
2017-05-26T16:32:09.137Z,43.80
2017-05-26T16:34:36.755Z,43.80
2017-05-26T16:37:05.077Z,39.40
2017-05-26T16:39:33.427Z,42.70
2017-05-26T16:42:01.745Z,41.70
2017-05-26T16:44:30.068Z,41.50
2017-05-26T16:46:58.415Z,40.10
2017-05-26T16:49:26.740Z,39.70
2017-05-26T16:51:55.094Z,39.80
2017-05-26T16:54:23.413Z,39.80
2017-05-26T16:56:51.747Z,37.70
2017-05-26T16:59:20.080Z,40.20
2017-05-26T17:01:48.440Z,38.50
2017-05-26T17:04:16.756Z,40.20
2017-05-26T17:06:45.076Z,41.30
2017-05-26T17:09:13.423Z,42.60
2017-05-26T17:11:41.748Z,42.30
2017-05-26T17:14:10.094Z,42.50
2017-05-26T17:16:38.428Z,43.30
2017-05-26T17:19:06.761Z,43.10
2017-05-26T17:21:35.065Z,42.80
2017-05-26T17:24:03.452Z,42.80
2017-05-26T17:26:31.747Z,42.70
2017-05-26T17:29:00.113Z,43.70
2017-05-26T17:31:28.423Z,41.70
2017-05-26T17:33:56.740Z,41.90
2017-05-26T17:36:25.083Z,42.40
2017-05-26T17:38:53.424Z,42.20
2017-05-26T17:41:21.754Z,42.50
2017-05-26T17:43:50.059Z,44.50
2017-05-26T17:46:18.396Z,45.10
2017-05-26T17:48:46.721Z,44.50
2017-05-26T17:51:15.060Z,46.10
2017-05-26T17:53:43.364Z,47.40
2017-05-26T17:56:11.720Z,46.30
2017-05-26T17:58:40.048Z,46.30
2017-05-26T18:01:08.363Z,46.40
2017-05-26T18:03:36.687Z,47.80
2017-05-26T18:06:05.000Z,47.60
2017-05-26T18:08:33.333Z,48.00
2017-05-26T18:11:01.680Z,47.20
2017-05-26T18:13:30.016Z,47.70
2017-05-26T18:15:58.332Z,49.40
2017-05-26T18:18:26.674Z,50.30
2017-05-26T18:20:54.988Z,49.70
2017-05-26T18:23:23.333Z,49.70
2017-05-26T18:25:51.660Z,49.50
2017-05-26T18:28:19.972Z,49.80
2017-05-26T18:30:48.304Z,49.20
2017-05-26T18:33:16.625Z,48.70
2017-05-26T18:35:44.999Z,48.80
2017-05-26T18:38:13.335Z,49.50
2017-05-26T18:40:41.666Z,49.30
2017-05-26T18:43:09.971Z,49.70
2017-05-26T18:45:38.321Z,50.60
2017-05-26T18:48:06.640Z,52.00
2017-05-26T18:50:34.957Z,51.00
2017-05-26T18:53:03.296Z,51.30
2017-05-26T18:55:31.608Z,52.80
2017-05-26T18:57:59.981Z,53.70
2017-05-26T19:00:28.300Z,53.40
2017-05-26T19:02:56.612Z,55.00
2017-05-26T19:05:24.970Z,56.60
2017-05-26T19:07:53.301Z,57.20
2017-05-26T19:10:21.645Z,58.00
2017-05-26T19:12:50.007Z,58.20
2017-05-26T19:15:18.346Z,58.20
2017-05-26T19:17:46.658Z,58.50
2017-05-26T19:20:14.983Z,58.60
2017-05-26T19:22:43.432Z,59.10
2017-05-26T19:25:11.820Z,59.60
2017-05-26T19:27:40.135Z,59.50
2017-05-26T19:30:08.455Z,60.40
2017-05-26T19:32:36.791Z,59.60
2017-05-26T19:35:05.098Z,59.10
2017-05-26T19:37:33.423Z,59.10
2017-05-26T19:40:01.730Z,59.00
2017-05-26T19:42:30.065Z,58.90
2017-05-26T19:44:58.390Z,59.50
2017-05-26T19:47:26.719Z,59.10
2017-05-26T19:49:55.031Z,59.50
2017-05-26T19:52:23.396Z,59.70
2017-05-26T19:54:51.703Z,59.60
2017-05-26T19:57:20.016Z,59.80
2017-05-26T19:59:48.347Z,60.00
2017-05-26T20:02:16.648Z,60.40
2017-05-26T20:04:44.977Z,60.90
2017-05-26T20:07:13.279Z,63.00
2017-05-26T20:09:41.605Z,63.70
2017-05-26T20:12:09.928Z,64.50
2017-05-26T20:14:38.257Z,65.60
2017-05-26T20:17:06.559Z,66.20
2017-05-26T20:19:34.909Z,66.20
2017-05-26T20:22:03.207Z,65.70
2017-05-26T20:24:31.510Z,65.40
2017-05-26T20:26:59.827Z,65.00
2017-05-26T20:29:28.132Z,64.40
2017-05-26T20:31:56.455Z,64.00
2017-05-26T20:34:24.755Z,63.90
2017-05-26T20:36:53.082Z,63.60
2017-05-26T20:39:21.393Z,63.30
2017-05-26T20:41:49.747Z,63.20
2017-05-26T20:44:18.046Z,63.30
2017-05-26T20:46:46.383Z,63.60
2017-05-26T20:49:14.683Z,64.20
2017-05-26T20:51:42.995Z,64.70
2017-05-26T20:54:11.328Z,64.50
2017-05-26T20:56:39.649Z,64.40
2017-05-26T20:59:07.990Z,64.40
2017-05-26T21:01:36.288Z,64.60
2017-05-26T21:04:03.844Z,64.50
2017-05-26T21:06:32.156Z,65.30
2017-05-26T21:09:00.507Z,66.20
2017-05-26T21:11:28.804Z,64.40
2017-05-26T21:13:57.145Z,64.80
2017-05-26T21:16:25.457Z,65.80
2017-05-26T21:18:53.760Z,66.80
2017-05-26T21:21:22.079Z,67.20
2017-05-26T21:23:50.404Z,67.00
2017-05-26T21:26:18.737Z,67.00
2017-05-26T21:28:47.049Z,65.40
2017-05-26T21:31:15.385Z,65.40
2017-05-26T21:33:43.720Z,66.70
2017-05-26T21:36:12.067Z,66.40
2017-05-26T21:38:40.378Z,66.20
2017-05-26T21:41:08.680Z,67.60
2017-05-26T21:43:37.001Z,68.40
2017-05-26T21:46:05.327Z,68.90
2017-05-26T21:48:33.648Z,69.20
2017-05-26T21:51:01.951Z,68.80
2017-05-26T21:53:30.278Z,68.90
2017-05-26T21:55:58.583Z,68.50
2017-05-26T21:58:26.930Z,68.60
2017-05-26T22:00:55.231Z,67.70
2017-05-26T22:03:23.550Z,67.00
2017-05-26T22:05:51.868Z,66.50
2017-05-26T22:08:20.168Z,65.70
2017-05-26T22:10:48.488Z,64.70
2017-05-26T22:13:16.788Z,66.10
2017-05-26T22:15:45.116Z,67.40
2017-05-26T22:18:13.421Z,68.30
2017-05-26T22:20:41.749Z,67.80
2017-05-26T22:23:10.056Z,69.30
2017-05-26T22:25:38.390Z,70.40
2017-05-26T22:28:06.686Z,70.90
2017-05-26T22:30:34.991Z,71.10
2017-05-26T22:33:03.327Z,69.90
2017-05-26T22:35:31.632Z,69.60
2017-05-26T22:37:59.955Z,67.40
2017-05-26T22:40:28.257Z,69.20
2017-05-26T22:42:56.579Z,70.30
2017-05-26T22:45:24.896Z,71.80
2017-05-26T22:47:53.236Z,71.10
2017-05-26T22:50:21.567Z,71.10
2017-05-26T22:52:49.872Z,70.90
2017-05-26T22:55:18.195Z,71.10
2017-05-26T22:57:46.493Z,69.70
2017-05-26T23:00:14.815Z,68.70
2017-05-26T23:02:43.124Z,67.20
2017-05-26T23:05:11.447Z,66.60
2017-05-26T23:07:39.743Z,66.90
2017-05-26T23:10:08.072Z,67.40
2017-05-26T23:12:36.375Z,68.20
2017-05-26T23:15:04.683Z,69.40
2017-05-26T23:17:33.014Z,70.30
2017-05-26T23:20:01.321Z,70.50
2017-05-26T23:22:29.659Z,71.60
2017-05-26T23:24:57.961Z,72.90
2017-05-26T23:27:26.301Z,73.40
2017-05-26T23:29:54.607Z,74.70
2017-05-26T23:32:22.904Z,75.10
2017-05-26T23:34:51.219Z,74.60
2017-05-26T23:37:19.528Z,74.30
2017-05-26T23:39:47.846Z,73.90
2017-05-26T23:42:16.152Z,73.40
2017-05-26T23:44:44.483Z,71.90
2017-05-26T23:47:12.780Z,70.30
2017-05-26T23:49:41.092Z,70.40
2017-05-26T23:52:09.411Z,71.30
2017-05-26T23:54:37.707Z,71.90
2017-05-26T23:57:06.030Z,71.80
2017-05-26T23:59:34.337Z,71.90
